Time;durP1;ratioP1;P1;durP2;ratioP2;P2;SDS_P1;SDS_P2;PMS_P1;PMS_P2;Temp;Humidity;BMP_temperature;BMP_pressure;BME280_temperature;BME280_humidity;BME280_pressure;Samples;Min_cycle;Max_cycle;Signal;HPM_P1;HPM_P2
2022/10/04 00:02:29;;;;;;;2.80;1.80;;;;;;;17.31;47.36;98188.47;5041438;28;20059;-72
2022/10/04 00:05:17;;;;;;;1.98;1.88;;;;;;;17.21;47.24;98195.47;5074743;28;20053;-72
2022/10/04 00:07:52;;;;;;;2.85;1.83;;;;;;;17.09;47.70;98168.66;5058191;28;20103;-71
2022/10/04 00:10:44;;;;;;;4.82;2.10;;;;;;;16.87;48.20;98193.63;5074419;28;20102;-72
2022/10/04 00:13:22;;;;;;;2.15;1.95;;;;;;;17.15;47.66;98191.88;5088406;28;20111;-71
2022/10/04 00:15:50;;;;;;;4.18;2.08;;;;;;;17.21;47.07;98195.47;5057177;28;20048;-72
2022/10/04 00:18:22;;;;;;;4.80;2.10;;;;;;;16.61;48.45;98222.50;5074254;28;20532;-75
2022/10/04 00:20:52;;;;;;;2.58;2.10;;;;;;;16.69;48.52;98203.41;5057304;28;20044;-72
2022/10/04 00:23:25;;;;;;;3.30;2.35;;;;;;;17.25;47.87;98202.81;5057464;28;20484;-71
2022/10/04 00:25:58;;;;;;;6.18;2.00;;;;;;;17.00;47.86;98204.13;5092007;28;20043;-73
2022/10/04 00:28:24;;;;;;;2.70;2.00;;;;;;;17.12;47.29;98208.44;5074681;28;20068;-71
2022/10/04 00:31:16;;;;;;;3.15;2.15;;;;;;;17.50;47.00;98206.06;5060623;28;20374;-71
2022/10/04 00:33:47;;;;;;;3.85;2.10;;;;;;;17.16;47.49;98233.72;5043993;28;20055;-70
2022/10/04 00:36:25;;;;;;;4.55;2.45;;;;;;;17.11;47.93;98246.22;5095516;28;20042;-71
2022/10/04 00:39:06;;;;;;;7.97;2.58;;;;;;;17.17;48.13;98215.78;5077762;28;20040;-70
2022/10/04 00:41:42;;;;;;;3.22;2.10;;;;;;;17.34;47.49;98217.53;5059458;28;20044;-70
2022/10/04 00:44:19;;;;;;;5.80;2.92;;;;;;;16.88;48.61;98217.53;5073612;28;20054;-70
2022/10/04 00:46:46;;;;;;;4.32;2.22;;;;;;;17.06;48.39;98248.78;5073840;28;20040;-70
2022/10/04 00:49:12;;;;;;;5.13;2.35;;;;;;;16.80;48.88;98221.34;5074003;28;20063;-70
2022/10/04 00:51:57;;;;;;;3.28;2.17;;;;;;;17.16;47.56;98209.59;5090688;28;20535;-70
2022/10/04 00:54:34;;;;;;;4.10;2.53;;;;;;;16.85;48.66;98247.50;5091163;28;20330;-71
2022/10/04 00:57:14;;;;;;;3.42;2.72;;;;;;;16.76;48.78;98225.56;5090982;28;20051;-74
2022/10/04 00:59:43;;;;;;;4.10;2.80;;;;;;;16.60;49.29;98206.66;5073555;28;20048;-72
2022/10/04 01:02:27;;;;;;;5.90;2.95;;;;;;;16.78;49.08;98207.38;5056772;28;20067;-73
2022/10/04 01:04:58;;;;;;;3.25;2.47;;;;;;;16.42;49.21;98260.31;5090243;28;20161;-74
2022/10/04 01:08:04;;;;;;;6.80;2.92;;;;;;;16.80;48.98;98221.34;5057013;28;20131;-74
2022/10/04 01:10:40;;;;;;;7.10;2.15;;;;;;;17.22;47.95;98216.69;5088728;28;20044;-72
2022/10/04 01:13:16;;;;;;;4.10;2.65;;;;;;;17.09;47.72;98189.31;5091262;28;20873;-73
2022/10/04 01:15:48;;;;;;;3.85;2.20;;;;;;;16.69;48.50;98258.88;5073672;28;20036;-72
2022/10/04 01:18:28;;;;;;;6.80;2.78;;;;;;;17.16;48.19;98230.25;5092421;28;20047;-72
2022/10/04 01:21:18;;;;;;;2.93;2.30;;;;;;;16.79;48.49;98224.25;5074242;28;20044;-72
2022/10/04 01:23:48;;;;;;;4.53;2.40;;;;;;;16.70;48.85;98229.16;5074168;28;20109;-72
2022/10/04 01:26:31;;;;;;;3.92;2.42;;;;;;;16.96;48.60;98259.28;5090270;28;20044;-73
2022/10/04 01:29:16;;;;;;;4.70;2.22;;;;;;;16.78;49.07;98223.47;5089706;28;20055;-72
2022/10/04 01:31:43;;;;;;;5.00;2.28;;;;;;;16.28;49.59;98230.19;5039865;28;20513;-73
2022/10/04 01:34:16;;;;;;;4.00;2.20;;;;;;;16.45;49.64;98217.81;5040109;28;20040;-72
2022/10/04 01:36:46;;;;;;;3.42;2.15;;;;;;;16.19;49.85;98214.69;5073902;28;20829;-72
2022/10/04 01:39:13;;;;;;;5.03;2.50;;;;;;;16.24;50.17;98228.19;5090089;28;20093;-72
2022/10/04 01:41:52;;;;;;;3.55;2.30;;;;;;;16.47;49.82;98220.25;5056024;28;20044;-72
2022/10/04 01:44:38;;;;;;;4.18;2.65;;;;;;;16.61;49.12;98227.03;5090709;28;20108;-72
2022/10/04 01:47:36;;;;;;;4.28;2.33;;;;;;;16.46;49.99;98232.84;5091417;28;20048;-72
2022/10/04 01:50:08;;;;;;;6.00;2.50;;;;;;;16.25;50.41;98211.88;5059449;28;20125;-72
2022/10/04 01:52:42;;;;;;;4.50;2.55;;;;;;;16.28;50.16;98227.50;5060693;28;20054;-72
2022/10/04 01:55:17;;;;;;;4.68;2.53;;;;;;;16.29;50.56;98231.00;5043531;28;20054;-72
2022/10/04 01:57:56;;;;;;;3.80;2.40;;;;;;;15.89;50.65;98232.59;5077055;28;20051;-73
2022/10/04 02:00:23;;;;;;;4.13;2.58;;;;;;;15.86;51.31;98222.34;5076572;28;20036;-72
2022/10/04 02:03:03;;;;;;;3.53;2.30;;;;;;;16.18;50.78;98221.06;5076855;28;20064;-71
2022/10/04 02:05:33;;;;;;;5.10;2.60;;;;;;;15.85;51.22;98220.72;5076906;28;20123;-73
2022/10/04 02:08:04;;;;;;;7.82;2.90;;;;;;;15.93;50.96;98207.81;5086344;28;20050;-72
2022/10/04 02:10:30;;;;;;;;;;;;;;;16.00;51.04;98227.31;5097649;28;20050;-72
2022/10/04 02:12:56;;;;;;;6.88;2.60;;;;;;;15.51;52.13;98206.09;5080098;28;20291;-72
2022/10/04 02:15:27;;;;;;;5.97;2.70;;;;;;;15.50;52.45;98236.56;5096762;28;20154;-72
2022/10/04 02:17:54;;;;;;;4.47;2.72;;;;;;;15.82;51.48;98216.59;5080487;28;20043;-72
2022/10/04 02:20:26;;;;;;;4.60;2.83;;;;;;;15.66;52.29;98221.75;5063434;28;20051;-72
2022/10/04 02:22:58;;;;;;;4.72;2.78;;;;;;;15.79;51.61;98232.31;5096232;28;20051;-72
2022/10/04 02:25:25;;;;;;;5.70;3.00;;;;;;;15.63;51.70;98241.78;5080100;28;20058;-72
2022/10/04 02:27:54;;;;;;;4.03;2.72;;;;;;;15.61;51.81;98233.16;5096918;28;20047;-72
2022/10/04 02:30:20;;;;;;;5.97;2.80;;;;;;;15.74;51.34;98241.03;5079289;28;20050;-72
2022/10/04 02:33:02;;;;;;;5.68;3.25;;;;;;;15.47;52.25;98239.69;5062925;28;20085;-74
2022/10/04 02:35:50;;;;;;;8.60;3.13;;;;;;;15.71;51.53;98230.78;5065030;28;20133;-72
2022/10/04 02:38:29;;;;;;;4.90;2.92;;;;;;;15.61;52.28;98237.66;5096112;28;20039;-72
2022/10/04 02:41:13;;;;;;;5.97;3.30;;;;;;;16.20;50.98;98248.44;5114579;28;20054;-74
2022/10/04 02:43:44;;;;;;;5.25;2.85;;;;;;;15.86;51.12;98223.16;5079323;28;20051;-73
2022/10/04 02:46:21;;;;;;;5.30;3.03;;;;;;;15.73;51.60;98270.69;5079714;28;20058;-73
2022/10/04 02:48:52;;;;;;;5.82;3.45;;;;;;;15.56;52.51;98257.06;5063087;28;20130;-73
2022/10/04 02:51:30;;;;;;;8.38;3.08;;;;;;;15.56;51.54;98283.84;5096113;28;20047;-73
2022/10/04 02:53:59;;;;;;;5.75;2.58;;;;;;;15.60;51.65;98247.56;5062302;28;20054;-73
2022/10/04 02:56:25;;;;;;;6.82;3.15;;;;;;;15.55;51.90;98257.28;5063434;28;20488;-72
2022/10/04 02:58:51;;;;;;;8.35;3.20;;;;;;;15.53;52.12;98243.34;5080340;28;20046;-72
2022/10/04 03:01:26;;;;;;;9.57;3.63;;;;;;;15.50;52.35;98265.19;5063649;28;20051;-73
2022/10/04 03:03:54;;;;;;;6.40;3.35;;;;;;;15.39;52.50;98247.19;5062671;28;20103;-73
2022/10/04 03:06:21;;;;;;;8.85;3.10;;;;;;;15.73;51.86;98266.13;5096228;28;20051;-71
2022/10/04 03:08:57;;;;;;;5.70;2.75;;;;;;;15.86;51.53;98249.09;5095730;28;20089;-70
2022/10/04 03:11:26;;;;;;;9.45;3.30;;;;;;;15.75;51.74;98264.06;5079809;28;20142;-70
2022/10/04 03:13:55;;;;;;;6.10;3.35;;;;;;;15.67;52.42;98256.34;5080299;28;20481;-71
2022/10/04 03:16:22;;;;;;;4.32;2.92;;;;;;;15.39;52.20;98248.00;5079124;28;20470;-72
2022/10/04 03:18:49;;;;;;;10.00;3.80;;;;;;;15.58;52.51;98252.31;5079325;28;20046;-72
2022/10/04 03:21:17;;;;;;;8.35;3.35;;;;;;;15.54;52.18;98253.81;5095707;28;20043;-73
2022/10/04 03:23:43;;;;;;;4.85;3.30;;;;;;;15.35;52.56;98251.31;5079406;28;20493;-74
2022/10/04 03:26:28;;;;;;;7.88;3.25;;;;;;;15.73;51.89;98266.13;5062062;28;20035;-73
2022/10/04 03:28:56;;;;;;;4.80;3.05;;;;;;;15.75;51.83;98247.19;5078507;28;20047;-73
2022/10/04 03:31:23;;;;;;;7.75;3.80;;;;;;;15.86;51.34;98249.09;5095555;28;20043;-73
2022/10/04 03:33:49;;;;;;;7.70;3.58;;;;;;;15.77;51.55;98270.03;5078626;28;20104;-73
2022/10/04 03:36:17;;;;;;;7.38;3.55;;;;;;;15.77;51.86;98248.59;5062323;28;20139;-72
2022/10/04 03:38:46;;;;;;;5.57;3.45;;;;;;;16.03;51.24;98263.50;5044498;28;20059;-72
2022/10/04 03:41:15;;;;;;;11.93;3.63;;;;;;;15.36;52.66;98253.75;5113051;28;20363;-74
2022/10/04 03:43:44;;;;;;;5.35;2.72;;;;;;;15.49;52.44;98268.88;5095481;28;20055;-73
2022/10/04 03:46:11;;;;;;;6.60;3.10;;;;;;;15.63;52.16;98263.19;5078820;28;20048;-71
2022/10/04 03:48:43;;;;;;;6.72;3.50;;;;;;;15.84;51.77;98262.72;5078668;28;20039;-72
2022/10/04 03:51:16;;;;;;;6.10;3.53;;;;;;;15.80;51.86;98274.94;5078212;28;20054;-73
2022/10/04 03:53:44;;;;;;;5.55;2.88;;;;;;;15.88;50.92;98260.41;5045052;28;20059;-74
2022/10/04 03:56:19;;;;;;;6.22;2.92;;;;;;;15.92;51.31;98291.88;5094585;28;20047;-71
2022/10/04 03:58:45;;;;;;;9.15;2.90;;;;;;;15.38;52.67;98288.34;5061702;28;20052;-71
2022/10/04 04:01:23;;;;;;;6.55;2.97;;;;;;;16.05;51.26;98291.69;5078202;28;20043;-72
2022/10/04 04:04:10;;;;;;;7.25;3.60;;;;;;;16.03;51.35;98293.81;5061385;28;20040;-71
2022/10/04 04:06:51;;;;;;;7.18;3.10;;;;;;;16.11;51.03;98261.34;5094978;28;20039;-71
2022/10/04 04:09:44;;;;;;;3.88;3.00;;;;;;;15.69;51.50;98294.41;5060470;28;20050;-72
2022/10/04 04:12:19;;;;;;;5.57;3.13;;;;;;;15.53;51.66;98262.88;5061241;28;20050;-72
2022/10/04 04:14:48;;;;;;;6.57;3.10;;;;;;;15.87;51.85;98262.25;5061091;28;20106;-70
2022/10/04 04:17:29;;;;;;;8.48;3.40;;;;;;;15.91;51.67;98289.41;5077940;28;20039;-67
2022/10/04 04:19:58;;;;;;;10.63;2.90;;;;;;;16.16;51.20;98288.25;5094493;28;20108;-68
2022/10/04 04:22:30;;;;;;;9.43;3.13;;;;;;;15.61;52.19;98285.84;5044065;28;20086;-74
2022/10/04 04:24:59;;;;;;;6.05;3.08;;;;;;;15.89;51.74;98289.66;5077712;28;20190;-71
2022/10/04 04:27:25;;;;;;;8.60;3.03;;;;;;;15.57;52.10;98285.50;5093861;28;20066;-71
2022/10/04 04:29:51;;;;;;;9.30;3.13;;;;;;;15.61;51.94;98291.19;5060299;28;20469;-72
2022/10/04 04:32:24;;;;;;;5.03;3.03;;;;;;;15.98;52.26;98293.66;5036572;28;20089;-72
2022/10/04 04:34:59;;;;;;;9.77;3.53;;;;;;;15.81;51.73;98297.97;5041486;28;20840;-68
2022/10/04 04:37:25;;;;;;;10.15;3.40;;;;;;;15.46;52.43;98282.72;5056493;28;20086;-69
2022/10/04 04:39:54;;;;;;;5.72;3.38;;;;;;;16.03;51.28;98309.88;5056605;28;20105;-70
2022/10/04 04:42:29;;;;;;;8.23;3.20;;;;;;;16.06;51.25;98328.16;5056469;28;20112;-75
2022/10/04 04:44:59;;;;;;;7.72;3.20;;;;;;;16.01;51.99;98321.81;5061085;28;20290;-76
2022/10/04 04:47:39;;;;;;;7.45;3.28;;;;;;;16.10;51.72;98307.09;5090731;28;20047;-78
2022/10/04 04:50:14;;;;;;;15.10;3.78;;;;;;;15.71;52.31;98316.44;5056342;28;20143;-75
2022/10/04 04:52:42;;;;;;;6.72;3.40;;;;;;;15.75;52.51;98312.25;5056557;28;20044;-76
2022/10/04 04:55:18;;;;;;;6.72;3.38;;;;;;;16.14;51.77;98322.50;5072377;28;20047;-76
2022/10/04 04:57:46;;;;;;;5.95;3.35;;;;;;;15.79;52.21;98304.59;5090473;28;20066;-75
2022/10/04 05:00:18;;;;;;;7.07;3.28;;;;;;;16.32;51.18;98314.44;5089692;28;20126;-75
2022/10/04 05:02:55;;;;;;;7.35;3.40;;;;;;;16.11;51.01;98328.31;5071251;28;20483;-75
2022/10/04 05:05:30;;;;;;;5.82;3.13;;;;;;;16.00;52.02;98318.34;5070937;28;20054;-74
2022/10/04 05:08:15;;;;;;;8.60;4.00;;;;;;;16.52;50.85;98328.41;5053385;28;20044;-74
2022/10/04 05:11:05;;;;;;;6.70;3.17;;;;;;;16.36;50.92;98366.50;5053580;28;20046;-75
2022/10/04 05:13:41;;;;;;;6.85;3.15;;;;;;;16.73;50.47;98325.22;5071384;28;20048;-76
2022/10/04 05:16:15;;;;;;;6.07;3.10;;;;;;;16.55;50.75;98329.81;5090268;28;20098;-74
2022/10/04 05:18:41;;;;;;;4.00;2.60;;;;;;;16.29;50.46;98344.34;5056812;28;20043;-75
2022/10/04 05:21:24;;;;;;;6.45;2.72;;;;;;;16.73;49.45;98321.72;5066244;28;20180;-76
2022/10/04 05:23:50;;;;;;;6.78;2.88;;;;;;;16.74;49.45;98312.63;5111500;28;20488;-78
2022/10/04 05:26:23;;;;;;;9.80;2.70;;;;;;;17.29;48.73;98337.34;5107754;28;20039;-73
2022/10/04 05:28:49;;;;;;;6.00;2.90;;;;;;;17.00;48.91;98347.09;5077410;28;20138;-74
2022/10/04 05:31:20;;;;;;;8.27;2.78;;;;;;;17.52;48.21;98342.75;5077944;28;20107;-73
2022/10/04 05:33:49;;;;;;;8.57;3.05;;;;;;;17.89;46.89;98352.19;5077750;28;20059;-70
2022/10/04 05:36:35;;;;;;;6.68;2.65;;;;;;;17.73;46.85;98363.63;5097494;28;20104;-73
2022/10/04 05:39:12;;;;;;;7.75;2.58;;;;;;;18.04;46.50;98331.00;5062936;28;20074;-73
2022/10/04 05:42:09;;;;;;;6.88;2.60;;;;;;;18.11;45.65;98356.69;5045166;28;20039;-74
2022/10/04 05:44:45;;;;;;;6.25;2.78;;;;;;;18.06;46.19;98361.16;5045073;28;20533;-75
2022/10/04 05:47:11;;;;;;;5.63;2.33;;;;;;;17.72;46.15;98362.00;5076438;28;20051;-75
2022/10/04 05:49:47;;;;;;;9.57;2.50;;;;;;;18.13;46.08;98364.53;5075758;28;20094;-72
2022/10/04 05:52:16;;;;;;;11.65;2.40;;;;;;;18.23;45.57;98354.00;5060477;28;20138;-74
2022/10/04 05:54:41;;;;;;;4.15;2.40;;;;;;;17.81;45.82;98339.09;5071897;28;20385;-73
2022/10/04 05:57:24;;;;;;;3.60;2.55;;;;;;;18.54;44.79;98369.72;5076527;28;20044;-73
2022/10/04 05:59:54;;;;;;;4.88;2.40;;;;;;;17.97;45.54;98395.63;5059607;28;20489;-73
2022/10/04 06:02:26;;;;;;;6.15;2.30;;;;;;;17.87;46.15;98381.13;5093897;28;20068;-76
2022/10/04 06:05:14;;;;;;;5.82;2.40;;;;;;;18.37;45.21;98384.94;5058990;28;20044;-73
2022/10/04 06:07:58;;;;;;;6.90;2.70;;;;;;;18.18;45.34;98397.72;5076141;28;20732;-74
2022/10/04 06:10:42;;;;;;;5.05;2.50;;;;;;;17.81;45.92;98376.72;5075574;28;20206;-73
2022/10/04 06:13:40;;;;;;;7.80;2.33;;;;;;;18.17;44.76;98385.31;5092893;28;20044;-76
2022/10/04 06:16:44;;;;;;;6.90;2.42;;;;;;;18.12;45.43;98403.19;5075363;28;20093;-75
2022/10/04 06:19:37;;;;;;;8.02;2.40;;;;;;;18.20;45.35;98400.16;4975651;28;20137;-75
2022/10/04 06:22:17;;;;;;;4.38;2.53;;;;;;;18.44;45.02;98391.84;4975517;28;20161;-76
2022/10/04 06:24:53;;;;;;;3.65;2.28;;;;;;;18.82;43.99;98399.28;5039007;28;20052;-77
2022/10/04 06:27:30;;;;;;;6.93;2.42;;;;;;;18.84;43.03;98396.34;5042421;28;20079;-78
2022/10/04 06:30:05;;;;;;;8.35;2.80;;;;;;;19.03;42.64;98404.00;5042691;28;20078;-79
2022/10/04 06:32:43;;;;;;;7.15;2.63;;;;;;;19.19;42.16;98400.50;5058543;28;20071;-76
2022/10/04 06:35:33;;;;;;;9.43;2.67;;;;;;;19.13;41.64;98425.69;5094040;28;20043;-76
2022/10/04 06:38:43;;;;;;;6.13;2.40;;;;;;;19.03;42.15;98411.25;5096807;28;20051;-79
2022/10/04 06:41:30;;;;;;;4.82;2.50;;;;;;;18.64;42.86;98404.84;5076006;28;20080;-75
2022/10/04 06:44:15;;;;;;;7.28;2.25;;;;;;;18.54;42.73;98401.97;5106186;28;20060;-79
2022/10/04 06:46:53;;;;;;;6.10;2.53;;;;;;;19.07;42.00;98410.53;5076866;28;20507;-75
2022/10/04 06:49:30;;;;;;;4.90;2.17;;;;;;;18.93;41.51;98398.41;5090415;28;20108;-79
2022/10/04 06:52:05;;;;;;;5.25;2.38;;;;;;;19.11;41.01;98446.66;5050014;28;20138;-76
2022/10/04 06:54:53;;;;;;;7.35;2.05;;;;;;;18.61;41.93;98409.88;5113796;28;20050;-75
2022/10/04 06:57:48;;;;;;;6.28;2.33;;;;;;;19.59;40.51;98420.06;5061304;28;20069;-75
2022/10/04 07:00:21;;;;;;;4.85;2.00;;;;;;;19.47;40.21;98462.44;5073119;28;20051;-77
2022/10/04 07:02:57;;;;;;;3.53;1.70;;;;;;;20.04;39.19;98412.69;5058143;28;20378;-75
2022/10/04 07:05:32;;;;;;;7.13;2.47;;;;;;;20.19;38.78;98392.44;5060159;28;20048;-76
2022/10/04 07:08:09;;;;;;;6.75;2.30;;;;;;;20.58;38.73;98408.31;5062569;28;20067;-76
2022/10/04 07:10:48;;;;;;;6.03;2.10;;;;;;;21.94;35.83;98406.94;5077464;28;20067;-80
2022/10/04 07:13:27;;;;;;;4.38;1.70;;;;;;;21.85;35.30;98430.94;5052191;28;20393;-77
2022/10/04 07:16:17;;;;;;;4.55;2.10;;;;;;;21.98;35.13;98402.63;5061779;28;20493;-75
2022/10/04 07:19:03;;;;;;;7.18;2.20;;;;;;;22.45;34.05;98373.69;5062838;28;20039;-76
2022/10/04 07:21:53;;;;;;;7.70;2.20;;;;;;;22.39;33.61;98374.72;5060170;28;20116;-77
2022/10/04 07:24:43;;;;;;;4.00;2.00;;;;;;;21.71;34.26;98395.41;5094145;28;20035;-75
2022/10/04 07:27:33;;;;;;;6.22;2.10;;;;;;;21.90;34.71;98385.03;5059043;28;20122;-74
2022/10/04 07:30:13;;;;;;;7.57;2.30;;;;;;;21.28;35.95;98389.38;5059353;28;20135;-77
2022/10/04 07:32:47;;;;;;;5.55;2.20;;;;;;;21.67;35.20;98390.78;5076172;28;20035;-73
2022/10/04 07:35:41;;;;;;;4.07;2.00;;;;;;;23.14;33.18;98378.50;5061351;28;20051;-73
2022/10/04 07:38:14;;;;;;;3.03;1.80;;;;;;;23.28;31.64;98406.72;5075687;28;20131;-74
2022/10/04 07:40:57;;;;;;;9.60;2.13;;;;;;;25.34;28.05;98379.03;5077888;28;20450;-76
2022/10/04 07:43:30;;;;;;;10.23;1.80;;;;;;;27.58;25.79;98378.59;5076019;28;20059;-74
2022/10/04 07:46:37;;;;;;;5.30;1.83;;;;;;;27.92;24.06;98366.28;5052273;28;20507;-78
2022/10/04 07:49:03;;;;;;;7.82;1.73;;;;;;;26.35;25.84;98357.16;5067478;28;20044;-76
2022/10/04 07:51:31;;;;;;;7.70;2.00;;;;;;;24.95;26.96;98382.81;5060721;28;20053;-75
2022/10/04 07:54:38;;;;;;;6.88;2.00;;;;;;;27.67;24.27;98401.34;5069246;28;20060;-75
2022/10/04 07:57:27;;;;;;;3.13;1.60;;;;;;;27.72;23.86;98346.72;5059124;28;20044;-76
2022/10/04 07:59:53;;;;;;;4.65;1.92;;;;;;;25.88;26.15;98344.28;5069129;28;20058;-76
2022/10/04 08:02:36;;;;;;;5.65;1.70;;;;;;;25.58;26.46;98352.75;5075309;28;20051;-75
2022/10/04 08:05:20;;;;;;;12.45;2.53;;;;;;;25.99;26.18;98324.06;5075131;28;20162;-75
2022/10/04 08:07:52;;;;;;;4.55;1.90;;;;;;;26.82;25.37;98356.28;5092076;28;20039;-72
2022/10/04 08:10:44;;;;;;;4.80;1.67;;;;;;;25.75;26.64;98377.63;5091186;28;20060;-77
2022/10/04 08:13:27;;;;;;;6.30;1.98;;;;;;;25.95;26.10;98333.06;5084578;28;20761;-79
2022/10/04 08:16:00;;;;;;;11.35;1.52;;;;;;;27.76;23.59;98370.38;5060369;28;20040;-80
2022/10/04 08:18:42;;;;;;;5.18;1.48;;;;;;;26.91;24.74;98379.06;5076409;28;20050;-75
2022/10/04 08:21:13;;;;;;;5.03;1.75;;;;;;;24.32;27.53;98362.72;5093192;28;20067;-78
2022/10/04 08:24:11;;;;;;;6.10;1.75;;;;;;;22.91;30.05;98367.38;5075327;28;20078;-78
2022/10/04 08:27:24;;;;;;;5.05;1.88;;;;;;;21.71;32.56;98378.41;5070179;28;20051;-76
2022/10/04 08:30:01;;;;;;;8.05;1.70;;;;;;;21.48;32.78;98335.53;5046559;28;20092;-75
2022/10/04 08:32:55;;;;;;;13.02;1.65;;;;;;;21.20;33.83;98376.34;5061004;28;20040;-77
2022/10/04 08:35:31;;;;;;;7.85;2.00;;;;;;;21.66;33.29;98354.81;5087104;28;20493;-75
2022/10/04 08:38:22;;;;;;;6.05;2.08;;;;;;;21.18;33.46;98356.88;5068131;28;20043;-78
2022/10/04 08:41:06;;;;;;;5.13;1.75;;;;;;;20.31;35.00;98379.66;5061161;28;20050;-77
2022/10/04 08:43:58;;;;;;;3.50;1.70;;;;;;;20.93;34.56;98354.72;5094066;28;20027;-76
2022/10/04 08:46:33;;;;;;;6.90;1.50;;;;;;;20.74;34.60;98388.50;5074306;28;20054;-75
2022/10/04 08:49:23;;;;;;;8.90;1.88;;;;;;;20.48;35.50;98365.00;5090313;28;20044;-77
2022/10/04 08:51:58;;;;;;;7.43;2.00;;;;;;;21.05;35.06;98378.91;5057291;28;20389;-77
2022/10/04 08:54:43;;;;;;;6.75;2.13;;;;;;;20.62;35.78;98368.16;5076271;28;20039;-75
2022/10/04 08:57:46;;;;;;;4.38;2.00;;;;;;;21.84;33.48;98363.63;5074035;28;20043;-78
2022/10/04 09:00:30;;;;;;;7.53;1.92;;;;;;;21.33;34.06;98459.63;5092038;28;20046;-76
2022/10/04 09:03:34;;;;;;;3.58;1.73;;;;;;;21.72;33.71;98371.91;5073572;28;20043;-76
2022/10/04 09:06:21;;;;;;;2.95;1.70;;;;;;;23.34;31.34;98385.84;5055688;28;20142;-75
2022/10/04 09:09:13;;;;;;;4.30;1.70;;;;;;;24.58;29.16;98375.91;5038614;28;20044;-74
2022/10/04 09:11:53;;;;;;;2.45;1.67;;;;;;;27.10;25.13;98349.88;5053213;28;20036;-75
2022/10/04 09:14:47;;;;;;;4.40;1.60;;;;;;;27.71;23.52;98386.81;5056587;28;20055;-73
2022/10/04 09:17:18;;;;;;;2.60;1.42;;;;;;;28.66;22.95;98356.91;5056696;28;20070;-77
2022/10/04 09:19:43;;;;;;;8.95;1.67;;;;;;;29.58;21.23;98347.13;5057050;28;20048;-71
2022/10/04 09:22:31;;;;;;;4.30;1.50;;;;;;;30.22;20.25;98343.03;5073302;28;20067;-73
2022/10/04 09:25:00;;;;;;;6.75;1.55;;;;;;;29.53;20.96;98369.16;5040368;28;20100;-70
2022/10/04 09:27:56;;;;;;;4.95;1.60;;;;;;;29.35;21.01;98359.19;5056058;28;20122;-72
2022/10/04 09:30:45;;;;;;;9.05;1.50;;;;;;;31.06;19.33;98355.31;5073599;28;20224;-70
2022/10/04 09:33:38;;;;;;;7.90;1.63;;;;;;;29.60;20.70;98355.00;5056716;28;20051;-70
2022/10/04 09:36:22;;;;;;;8.60;1.45;;;;;;;27.32;23.66;98352.84;5056269;28;20162;-69
2022/10/04 09:39:03;;;;;;;7.03;1.80;;;;;;;25.50;25.67;98361.50;5070845;28;20128;-70
2022/10/04 09:41:51;;;;;;;5.25;1.67;;;;;;;23.47;28.72;98360.13;5055281;28;20193;-73
2022/10/04 09:44:55;;;;;;;4.93;1.60;;;;;;;22.32;30.79;98385.81;5073150;28;20379;-70
2022/10/04 09:47:36;;;;;;;6.00;1.70;;;;;;;22.34;31.29;98343.06;5089616;28;20048;-71
2022/10/04 09:50:17;;;;;;;9.55;1.70;;;;;;;21.17;33.06;98330.97;5072564;28;20055;-71
2022/10/04 09:52:54;;;;;;;;;;;;;;;21.95;32.47;98344.50;5062167;28;20040;-72
2022/10/04 09:55:47;;;;;;;5.10;1.73;;;;;;;21.83;32.72;98359.28;5089600;28;19959;-72
2022/10/04 09:58:42;;;;;;;1.98;1.33;;;;;;;21.33;33.20;98347.03;5073059;28;20486;-71
2022/10/04 10:01:07;;;;;;;5.85;1.83;;;;;;;20.87;34.53;98353.03;5056740;28;20452;-71
2022/10/04 10:03:46;;;;;;;3.45;1.70;;;;;;;21.57;33.71;98342.88;5055959;28;20056;-70
2022/10/04 10:06:26;;;;;;;3.78;1.40;;;;;;;21.38;34.14;98352.47;5039500;28;20063;-71
2022/10/04 10:09:06;;;;;;;5.85;1.85;;;;;;;21.67;33.58;98334.03;5075510;28;20052;-70
2022/10/04 10:14:38;;;;;;;5.70;1.50;;;;;;;21.05;33.80;98322.22;5093697;28;19927;-71
2022/10/04 10:17:42;;;;;;;5.57;1.70;;;;;;;21.56;33.60;98337.72;5059850;28;20543;-70
2022/10/04 10:20:21;;;;;;;4.38;1.67;;;;;;;21.59;33.81;98356.94;5043378;28;20044;-70
2022/10/04 10:23:20;;;;;;;5.97;1.40;;;;;;;21.32;33.95;98345.41;5061028;28;20078;-70
2022/10/04 10:26:14;;;;;;;6.68;1.92;;;;;;;21.17;34.43;98336.34;5077231;28;20293;-72
2022/10/04 10:28:57;;;;;;;7.53;2.00;;;;;;;20.94;35.63;98360.94;5049772;28;20079;-73
2022/10/04 10:31:55;;;;;;;5.43;1.90;;;;;;;20.75;37.66;98389.34;5077191;28;20056;-71
2022/10/04 10:34:43;;;;;;;19.60;2.70;;;;;;;19.29;45.41;98537.19;5061559;28;20044;-74
2022/10/04 10:37:46;;;;;;;75.63;5.32;;;;;;;44.32;70.20;100105.47;5061214;28;20043;-73
2022/10/04 10:40:31;;;;;;;5.20;3.50;;;;;;;48.62;nan;98778.06;5043614;28;20040;-76
2022/10/04 10:43:06;;;;;;;5.25;2.72;;;;;;;51.74;nan;99712.72;5059870;28;20160;-73
2022/10/04 10:45:48;;;;;;;2.38;2.17;;;;;;;38.38;34.16;99707.50;5076337;28;21227;-73
2022/10/04 10:48:18;;;;;;;4.03;1.95;;;;;;;48.91;nan;99188.88;5060982;28;20036;-73
2022/10/04 10:51:10;;;;;;;7.88;2.67;;;;;;;52.20;nan;100268.44;5076614;28;20054;-75
2022/10/04 10:53:47;;;;;;;4.18;2.03;;;;;;;52.13;nan;99789.34;5042876;28;21030;-73
2022/10/04 10:56:50;;;;;;;2.70;1.40;;;;;;;49.51;nan;99153.28;5076795;28;20083;-72
2022/10/04 10:59:48;;;;;;;9.77;1.67;;;;;;;-141.23;100.00;62281.09;5060170;28;20055;-70
2022/10/04 11:02:36;;;;;;;4.55;1.38;;;;;;;-141.23;100.00;62281.09;5076706;28;20055;-71
2022/10/04 11:05:23;;;;;;;4.85;1.30;;;;;;;-141.23;100.00;62281.09;5076005;28;20105;-71
2022/10/04 11:07:52;;;;;;;3.40;1.67;;;;;;;-141.23;100.00;62281.09;5059173;28;20093;-71
2022/10/04 11:10:55;;;;;;;3.97;1.67;;;;;;;-141.23;100.00;62281.09;5059262;28;20043;-71
2022/10/04 11:13:36;;;;;;;4.18;2.00;;;;;;;-141.23;100.00;62281.09;5057820;28;20046;-72
2022/10/04 11:16:33;;;;;;;3.80;2.08;;;;;;;-141.23;100.00;62281.09;5076372;28;20112;-73
2022/10/04 11:19:14;;;;;;;4.03;2.00;;;;;;;-141.23;100.00;62281.09;5042579;28;20096;-72
2022/10/04 11:22:15;;;;;;;6.15;1.80;;;;;;;51.98;nan;98516.31;5058373;28;20146;-71
2022/10/04 11:25:10;;;;;;;3.72;2.22;;;;;;;21.92;nan;98464.00;5058023;28;20032;-73
2022/10/04 11:27:53;;;;;;;2.65;1.90;;;;;;;18.90;nan;98455.41;5057928;28;20054;-71
2022/10/04 11:30:28;;;;;;;1.30;1.02;;;;;;;17.66;nan;98486.47;5076654;28;20396;-72
2022/10/04 11:33:16;;;;;;;2.88;1.10;;;;;;;17.39;nan;98487.88;5077541;28;20039;-72
2022/10/04 11:36:15;;;;;;;1.10;1.00;;;;;;;17.42;nan;98508.91;5061937;28;20043;-72
2022/10/04 11:39:11;;;;;;;1.52;1.10;;;;;;;17.15;nan;98478.94;5077635;28;20100;-72
2022/10/04 11:41:47;;;;;;;2.75;1.05;;;;;;;16.93;nan;98517.22;5075386;28;20074;-72
2022/10/04 11:44:40;;;;;;;1.20;1.10;;;;;;;17.09;nan;98521.94;5091784;28;20127;-72
2022/10/04 11:47:20;;;;;;;1.48;1.20;;;;;;;16.92;nan;98510.19;5075980;28;20046;-71
2022/10/04 11:49:46;;;;;;;1.92;1.02;;;;;;;16.25;nan;98508.47;5051064;28;20575;-71
2022/10/04 11:52:30;;;;;;;2.55;1.20;;;;;;;17.07;nan;98510.63;5057787;28;20039;-72
2022/10/04 11:55:11;;;;;;;2.88;1.10;;;;;;;16.42;nan;98507.66;5042375;28;20047;-72
2022/10/04 11:57:48;;;;;;;3.50;0.82;;;;;;;16.94;nan;98500.06;5059272;28;20074;-73
2022/10/04 12:00:15;;;;;;;1.30;1.10;;;;;;;16.56;nan;98538.66;5055896;28;20067;-71
2022/10/04 12:03:08;;;;;;;1.25;0.90;;;;;;;17.16;nan;98512.75;5060244;28;20525;-71
2022/10/04 12:06:12;;;;;;;1.40;0.90;;;;;;;17.07;nan;98508.75;5074829;28;20143;-72
2022/10/04 12:08:53;;;;;;;3.38;1.10;;;;;;;17.15;nan;98515.66;5054576;28;20040;-72
2022/10/04 12:14:52;;;;;;;0.80;0.80;;;;;;;17.34;nan;98533.38;5075139;28;20044;-72
2022/10/04 12:17:45;;;;;;;2.72;0.90;;;;;;;17.14;nan;98543.56;5048183;28;20477;-72
2022/10/04 12:20:34;;;;;;;0.93;0.60;;;;;;;16.91;nan;98544.25;5057218;28;20043;-74
2022/10/04 12:23:56;;;;;;;1.10;1.00;;;;;;;17.10;nan;98532.44;5055772;28;20441;-73
2022/10/04 12:26:46;;;;;;;1.65;0.85;;;;;;;16.90;nan;98531.06;4994329;28;20041;-73
2022/10/04 12:29:35;;;;;;;2.95;0.80;;;;;;;16.92;nan;98524.44;5011403;28;20045;-75
2022/10/04 12:32:13;;;;;;;1.40;0.90;;;;;;;16.81;nan;98550.16;5082023;28;20134;-73
2022/10/04 12:35:00;;;;;;;1.10;0.95;;;;;;;16.77;nan;98558.84;5052234;28;20036;-72
2022/10/04 12:37:59;;;;;;;1.00;0.90;;;;;;;16.87;nan;98540.38;5075103;28;20043;-72
2022/10/04 12:40:32;;;;;;;1.45;0.93;;;;;;;16.61;nan;98565.63;5058623;28;20092;-71